Time;durP1;ratioP1;P1;durP2;ratioP2;P2;SDS_P1;SDS_P2;PMS_P1;PMS_P2;Temp;Humidity;BMP_temperature;BMP_pressure;BME280_temperature;BME280_humidity;BME280_pressure;Samples;Min_cycle;Max_cycle;Signal;HPM_P1;HPM_P2
2023/05/06 00:00:57;;;;;;;;;;;12.60;99.90;;;;;;5178930;27;19998;-40
2023/05/06 00:03:22;;;;;;;;;;;12.60;99.90;;;;;;5178116;27;20277;-39
2023/05/06 00:05:48;;;;;;;;;;;12.60;99.90;;;;;;5178815;27;19907;-39
2023/05/06 00:08:13;;;;;;;;;;;12.50;99.90;;;;;;5178106;27;19933;-40
2023/05/06 00:10:39;;;;;;;;;;;12.50;99.90;;;;;;5177824;27;20358;-39
2023/05/06 00:13:04;;;;;;;;;;;12.50;99.90;;;;;;5178819;27;19907;-40
2023/05/06 00:15:30;;;;;;;;;;;12.40;99.90;;;;;;5178663;27;20373;-40
2023/05/06 00:17:55;;;;;;;;;;;12.40;99.90;;;;;;5177793;27;19907;-40
2023/05/06 00:20:21;;;;;;;;;;;12.30;99.90;;;;;;5178687;27;19907;-40
2023/05/06 00:22:47;;;;;;;;;;;12.30;99.90;;;;;;5178510;27;19911;-40
2023/05/06 00:25:12;;;;;;;;;;;12.20;99.90;;;;;;5177768;27;19941;-40
2023/05/06 00:27:38;;;;;;;;;;;12.20;99.90;;;;;;5178419;27;19907;-40
2023/05/06 00:30:03;;;;;;;;;;;12.20;99.90;;;;;;5177641;27;20429;-40
2023/05/06 00:32:29;;;;;;;;;;;12.20;99.90;;;;;;5177976;27;20304;-39
2023/05/06 00:34:54;;;;;;;;;;;12.10;99.90;;;;;;5178273;27;19951;-38
2023/05/06 00:37:20;;;;;;;;;;;12.10;99.90;;;;;;5177347;27;19907;-39
2023/05/06 00:39:45;;;;;;;;;;;12.10;99.90;;;;;;5177694;27;19959;-39
2023/05/06 00:42:11;;;;;;;;;;;12.10;99.90;;;;;;5178083;27;19930;-39
2023/05/06 00:44:36;;;;;;;;;;;12.10;99.90;;;;;;5177280;27;20262;-40
2023/05/06 00:47:02;;;;;;;;;;;12.00;99.90;;;;;;5178018;27;19999;-39
2023/05/06 00:49:28;;;;;;;;;;;11.90;99.90;;;;;;5177965;27;20333;-39
2023/05/06 00:51:55;;;;;;;;;;;11.90;99.90;;;;;;5177047;27;19915;-38
2023/05/06 00:54:21;;;;;;;;;;;11.90;99.90;;;;;;5178022;27;19950;-40
2023/05/06 00:56:46;;;;;;;;;;;11.80;99.90;;;;;;5177819;27;19957;-39
2023/05/06 00:59:12;;;;;;;;;;;11.80;99.90;;;;;;5176545;27;20353;-41
2023/05/06 01:01:37;;;;;;;;;;;11.80;99.90;;;;;;5177803;27;20321;-39
2023/05/06 01:04:03;;;;;;;;;;;11.80;99.90;;;;;;5177732;27;19907;-41
2023/05/06 01:06:34;;;;;;;;;;;11.80;99.90;;;;;;5176901;27;19907;-39
2023/05/06 01:09:07;;;;;;;;;;;11.80;99.90;;;;;;5177423;27;19911;-39
2023/05/06 01:11:37;;;;;;;;;;;11.90;99.90;;;;;;5177616;27;19918;-39
2023/05/06 01:14:13;;;;;;;;;;;11.90;99.90;;;;;;5176786;27;19942;-39
2023/05/06 01:16:39;;;;;;;;;;;11.90;99.90;;;;;;5176992;27;20340;-40
2023/05/06 01:19:07;;;;;;;;;;;12.00;99.90;;;;;;5177359;27;19957;-41
2023/05/06 01:21:33;;;;;;;;;;;12.00;99.90;;;;;;5176920;27;19918;-39
2023/05/06 01:23:59;;;;;;;;;;;12.00;99.90;;;;;;5177509;27;19950;-39
2023/05/06 01:26:25;;;;;;;;;;;11.90;99.90;;;;;;5176705;27;19957;-39
2023/05/06 01:28:51;;;;;;;;;;;12.00;99.90;;;;;;5177214;27;19934;-39
2023/05/06 01:31:24;;;;;;;;;;;12.00;99.90;;;;;;5177218;27;20334;-39
2023/05/06 01:33:52;;;;;;;;;;;12.00;99.90;;;;;;5176104;27;19961;-40
2023/05/06 01:36:26;;;;;;;;;;;12.00;99.90;;;;;;5177121;27;19906;-40
2023/05/06 01:38:59;;;;;;;;;;;12.00;99.90;;;;;;5176614;27;20050;-40
2023/05/06 01:41:25;;;;;;;;;;;12.00;99.90;;;;;;5176232;27;19964;-39
2023/05/06 01:43:52;;;;;;;;;;;12.00;99.90;;;;;;5176868;27;19966;-39
2023/05/06 01:46:18;;;;;;;;;;;12.00;99.90;;;;;;5176687;27;19911;-39
2023/05/06 01:48:44;;;;;;;;;;;12.00;99.90;;;;;;5176035;27;20284;-39
2023/05/06 01:51:10;;;;;;;;;;;12.00;99.90;;;;;;5176733;27;19921;-38
2023/05/06 01:53:35;;;;;;;;;;;12.00;99.90;;;;;;5176754;27;19911;-39
2023/05/06 01:56:01;;;;;;;;;;;11.90;99.90;;;;;;5175867;27;19907;-39
2023/05/06 01:58:27;;;;;;;;;;;11.90;99.90;;;;;;5176536;27;19911;-38
2023/05/06 02:00:52;;;;;;;;;;;11.90;99.90;;;;;;5176596;27;19954;-39
2023/05/06 02:03:17;;;;;;;;;;;11.90;99.90;;;;;;5175762;27;19907;-39
2023/05/06 02:05:43;;;;;;;;;;;11.90;99.90;;;;;;5176501;27;19913;-39
2023/05/06 02:08:09;;;;;;;;;;;11.80;99.90;;;;;;5176234;27;20353;-39
2023/05/06 02:10:34;;;;;;;;;;;11.90;99.90;;;;;;5174542;27;19915;-39
2023/05/06 02:13:00;;;;;;;;;;;11.90;99.90;;;;;;5176372;27;19959;-39
2023/05/06 02:15:25;;;;;;;;;;;11.90;99.90;;;;;;5175665;27;20010;-38
2023/05/06 02:17:51;;;;;;;;;;;11.80;99.90;;;;;;5175947;27;19918;-39
2023/05/06 02:20:16;;;;;;;;;;;11.80;99.90;;;;;;5176191;27;19951;-39
2023/05/06 02:22:42;;;;;;;;;;;11.70;99.90;;;;;;5175388;27;19911;-40
2023/05/06 02:25:07;;;;;;;;;;;11.60;99.90;;;;;;5176198;27;19906;-39
2023/05/06 02:27:33;;;;;;;;;;;11.60;99.90;;;;;;5175264;27;19922;-39
2023/05/06 02:29:59;;;;;;;;;;;11.60;99.90;;;;;;5175355;27;19914;-38
2023/05/06 02:32:24;;;;;;;;;;;11.60;99.90;;;;;;5175685;27;20254;-39
2023/05/06 02:34:50;;;;;;;;;;;11.50;99.90;;;;;;5176194;27;19907;-41
2023/05/06 02:37:16;;;;;;;;;;;11.60;99.90;;;;;;5175404;27;19945;-38
2023/05/06 02:39:41;;;;;;;;;;;11.50;99.90;;;;;;5175804;27;20005;-39
2023/05/06 02:42:06;;;;;;;;;;;11.50;99.90;;;;;;5175917;27;19914;-39
2023/05/06 02:44:32;;;;;;;;;;;11.50;99.90;;;;;;5174874;27;19965;-39
2023/05/06 02:46:57;;;;;;;;;;;11.50;99.90;;;;;;5175759;27;19921;-38
2023/05/06 02:49:23;;;;;;;;;;;11.50;99.90;;;;;;5175727;27;20274;-39
2023/05/06 02:51:48;;;;;;;;;;;11.40;99.90;;;;;;5175213;27;19967;-39
2023/05/06 02:54:14;;;;;;;;;;;11.30;99.90;;;;;;5175618;27;19907;-39
2023/05/06 02:56:42;;;;;;;;;;;11.20;99.90;;;;;;5175555;27;20304;-39
2023/05/06 02:59:07;;;;;;;;;;;11.20;99.90;;;;;;5174325;27;19954;-40
2023/05/06 03:01:32;;;;;;;;;;;11.10;99.90;;;;;;5175424;27;19969;-39
2023/05/06 03:03:58;;;;;;;;;;;11.10;99.90;;;;;;5175557;27;19907;-39
2023/05/06 03:06:23;;;;;;;;;;;11.10;99.90;;;;;;5174682;27;19907;-38
2023/05/06 03:08:49;;;;;;;;;;;11.00;99.90;;;;;;5175437;27;19961;-39
2023/05/06 03:11:14;;;;;;;;;;;11.00;99.90;;;;;;5175276;27;20052;-39
2023/05/06 03:13:40;;;;;;;;;;;11.00;99.90;;;;;;5174500;27;19907;-38
2023/05/06 03:16:10;;;;;;;;;;;10.90;99.90;;;;;;5175367;27;19998;-38
2023/05/06 03:18:35;;;;;;;;;;;10.90;99.90;;;;;;5175204;27;19914;-39
2023/05/06 03:21:01;;;;;;;;;;;10.90;99.90;;;;;;5174251;27;19906;-38
2023/05/06 03:23:26;;;;;;;;;;;10.90;99.90;;;;;;5175247;27;19907;-39
2023/05/06 03:25:52;;;;;;;;;;;10.90;99.90;;;;;;5174398;27;20389;-39
2023/05/06 03:28:17;;;;;;;;;;;10.90;99.90;;;;;;5174765;27;19915;-38
2023/05/06 03:30:42;;;;;;;;;;;10.90;99.90;;;;;;5174982;27;20010;-39
2023/05/06 03:33:08;;;;;;;;;;;10.90;99.90;;;;;;5174151;27;20270;-39
2023/05/06 03:35:34;;;;;;;;;;;10.90;99.90;;;;;;5174838;27;19913;-40
2023/05/06 03:37:59;;;;;;;;;;;10.90;99.90;;;;;;5174935;27;19910;-39
2023/05/06 03:40:24;;;;;;;;;;;10.80;99.90;;;;;;5174366;27;19913;-40
2023/05/06 03:42:50;;;;;;;;;;;10.80;99.90;;;;;;5175021;27;19959;-39
2023/05/06 03:45:15;;;;;;;;;;;10.80;99.90;;;;;;5175066;27;20419;-40
2023/05/06 03:47:41;;;;;;;;;;;10.70;99.90;;;;;;5174378;27;19938;-39
2023/05/06 03:50:07;;;;;;;;;;;10.70;99.90;;;;;;5175089;27;19923;-39
2023/05/06 03:52:32;;;;;;;;;;;10.60;99.90;;;;;;5174865;27;19907;-39
2023/05/06 03:54:57;;;;;;;;;;;10.60;99.90;;;;;;5174136;27;19975;-39
2023/05/06 03:57:23;;;;;;;;;;;10.60;99.90;;;;;;5174540;27;19910;-38
2023/05/06 03:59:48;;;;;;;;;;;10.60;99.90;;;;;;5174887;27;20380;-38
2023/05/06 04:02:15;;;;;;;;;;;10.60;99.90;;;;;;5174138;27;20060;-39
2023/05/06 04:04:40;;;;;;;;;;;10.50;99.90;;;;;;5174846;27;19921;-39
2023/05/06 04:07:06;;;;;;;;;;;10.50;99.90;;;;;;5174582;27;19914;-37
2023/05/06 04:09:32;;;;;;;;;;;10.60;99.90;;;;;;5174072;27;19914;-38
2023/05/06 04:11:57;;;;;;;;;;;10.50;99.90;;;;;;5174600;27;19914;-38
2023/05/06 04:14:23;;;;;;;;;;;10.50;99.90;;;;;;5174423;27;20234;-39
2023/05/06 04:16:48;;;;;;;;;;;10.50;99.90;;;;;;5173924;27;19911;-39
2023/05/06 04:19:16;;;;;;;;;;;10.60;99.90;;;;;;5174833;27;19914;-39
2023/05/06 04:21:41;;;;;;;;;;;10.50;99.90;;;;;;5174587;27;19907;-39
2023/05/06 04:24:07;;;;;;;;;;;10.50;99.90;;;;;;5174013;27;20002;-38
2023/05/06 04:26:32;;;;;;;;;;;10.50;99.90;;;;;;5174462;27;20045;-39
2023/05/06 04:28:58;;;;;;;;;;;10.40;99.90;;;;;;5174383;27;19910;-39
2023/05/06 04:31:23;;;;;;;;;;;10.30;99.90;;;;;;5173685;27;20357;-38
2023/05/06 04:33:49;;;;;;;;;;;10.30;99.90;;;;;;5176795;27;19926;-38
2023/05/06 04:36:14;;;;;;;;;;;10.30;99.90;;;;;;5177223;27;19911;-39
2023/05/06 04:38:40;;;;;;;;;;;10.30;99.90;;;;;;5178196;27;20266;-39
2023/05/06 04:41:06;;;;;;;;;;;10.30;99.90;;;;;;5178153;27;20375;-39
2023/05/06 04:43:31;;;;;;;;;;;10.30;99.90;;;;;;5177357;27;19950;-39
2023/05/06 04:45:57;;;;;;;;;;;10.30;99.90;;;;;;5177877;27;20373;-38
2023/05/06 04:48:22;;;;;;;;;;;10.30;99.90;;;;;;5172422;27;19915;-38
2023/05/06 04:50:48;;;;;;;;;;;10.30;99.90;;;;;;5176303;27;20392;-39
2023/05/06 04:53:14;;;;;;;;;;;10.30;99.90;;;;;;5178043;27;19907;-38
2023/05/06 04:55:40;;;;;;;;;;;10.40;99.90;;;;;;5178042;27;19907;-39
2023/05/06 04:58:06;;;;;;;;;;;10.40;99.90;;;;;;5177209;27;20288;-40
2023/05/06 05:00:32;;;;;;;;;;;10.40;99.90;;;;;;5177758;27;20047;-40
2023/05/06 05:02:57;;;;;;;;;;;10.50;99.90;;;;;;5177914;27;20345;-38
2023/05/06 05:05:23;;;;;;;;;;;10.50;99.90;;;;;;5177038;27;19918;-39
2023/05/06 05:07:48;;;;;;;;;;;10.50;99.90;;;;;;5177174;27;20354;-38
2023/05/06 05:10:14;;;;;;;;;;;10.60;99.90;;;;;;5177619;27;19914;-39
2023/05/06 05:12:39;;;;;;;;;;;10.60;99.90;;;;;;5176704;27;19913;-39
2023/05/06 05:15:05;;;;;;;;;;;10.70;99.90;;;;;;5177657;27;19932;-38
2023/05/06 05:17:31;;;;;;;;;;;10.80;99.90;;;;;;5177638;27;20312;-38
2023/05/06 05:19:56;;;;;;;;;;;10.80;99.90;;;;;;5176673;27;19907;-38
2023/05/06 05:22:22;;;;;;;;;;;10.80;99.90;;;;;;5177327;27;19907;-39
2023/05/06 05:24:47;;;;;;;;;;;10.90;99.90;;;;;;5177358;27;20002;-38
2023/05/06 05:27:13;;;;;;;;;;;10.90;99.90;;;;;;5176698;27;20312;-39
2023/05/06 05:29:38;;;;;;;;;;;10.90;99.90;;;;;;5177247;27;19906;-39
2023/05/06 05:32:04;;;;;;;;;;;11.00;99.90;;;;;;5176985;27;19923;-39
2023/05/06 05:34:29;;;;;;;;;;;11.00;99.90;;;;;;5176491;27;19918;-39
2023/05/06 05:36:56;;;;;;;;;;;11.10;99.90;;;;;;5176802;27;19915;-39
2023/05/06 05:39:21;;;;;;;;;;;11.10;99.90;;;;;;5176854;27;19942;-40
2023/05/06 05:41:47;;;;;;;;;;;11.20;99.90;;;;;;5176554;27;19991;-38
2023/05/06 05:44:13;;;;;;;;;;;11.20;99.90;;;;;;5176533;27;19919;-40
2023/05/06 05:46:38;;;;;;;;;;;11.30;99.90;;;;;;5175661;27;19918;-39
2023/05/06 05:49:04;;;;;;;;;;;11.30;99.90;;;;;;5176679;27;19917;-39
2023/05/06 05:51:30;;;;;;;;;;;11.40;99.90;;;;;;5174469;27;19933;-38
2023/05/06 05:53:55;;;;;;;;;;;11.50;99.90;;;;;;5155154;27;19907;-38
2023/05/06 05:56:20;;;;;;;;;;;11.50;99.90;;;;;;5155940;27;19911;-39
2023/05/06 05:58:46;;;;;;;;;;;11.60;99.90;;;;;;5155824;27;20307;-38
2023/05/06 06:01:11;;;;;;;;;;;11.60;99.90;;;;;;5155227;27;19907;-40
2023/05/06 06:03:37;;;;;;;;;;;11.70;99.90;;;;;;5158664;27;19936;-38
2023/05/06 06:06:03;;;;;;;;;;;11.80;99.90;;;;;;5166604;27;20342;-39
2023/05/06 06:08:28;;;;;;;;;;;11.80;99.90;;;;;;5154892;27;19960;-39
2023/05/06 06:10:55;;;;;;;;;;;12.00;99.90;;;;;;5155428;27;20446;-39
2023/05/06 06:13:20;;;;;;;;;;;12.00;99.90;;;;;;5155664;27;20393;-39
2023/05/06 06:15:46;;;;;;;;;;;12.00;99.90;;;;;;5174014;27;19987;-38
2023/05/06 06:18:11;;;;;;;;;;;12.10;99.90;;;;;;5175983;27;20262;-39
2023/05/06 06:20:37;;;;;;;;;;;12.20;99.90;;;;;;5175917;27;19993;-38
2023/05/06 06:23:02;;;;;;;;;;;12.30;99.90;;;;;;5174915;27;19911;-40
2023/05/06 06:25:27;;;;;;;;;;;12.40;99.90;;;;;;5176212;27;19907;-40
2023/05/06 06:27:54;;;;;;;;;;;12.50;99.90;;;;;;5176163;27;20615;-38
2023/05/06 06:30:19;;;;;;;;;;;12.60;99.90;;;;;;5175176;27;19923;-39
2023/05/06 06:32:48;;;;;;;;;;;12.70;99.90;;;;;;5173132;27;19926;-40
2023/05/06 06:35:14;;;;;;;;;;;12.70;99.90;;;;;;5175287;27;20003;-39
2023/05/06 06:37:39;;;;;;;;;;;12.80;99.90;;;;;;5175448;27;19952;-38
2023/05/06 06:40:05;;;;;;;;;;;12.90;99.90;;;;;;5175911;27;19911;-39
2023/05/06 06:42:31;;;;;;;;;;;13.00;99.90;;;;;;5175853;27;20001;-38
2023/05/06 06:44:56;;;;;;;;;;;13.20;99.90;;;;;;5174968;27;19938;-38
2023/05/06 06:47:22;;;;;;;;;;;13.40;99.90;;;;;;5175668;27;19911;-38
2023/05/06 06:49:47;;;;;;;;;;;13.50;99.90;;;;;;5174908;27;19913;-40
2023/05/06 06:52:13;;;;;;;;;;;13.70;99.90;;;;;;5175596;27;20318;-39
2023/05/06 06:54:38;;;;;;;;;;;13.80;99.90;;;;;;5175614;27;19907;-39
2023/05/06 06:57:05;;;;;;;;;;;13.90;99.90;;;;;;5174393;27;20232;-39
2023/05/06 06:59:30;;;;;;;;;;;13.90;99.90;;;;;;5175770;27;19907;-39
2023/05/06 07:01:56;;;;;;;;;;;14.00;99.90;;;;;;5169823;27;20326;-38
2023/05/06 07:04:21;;;;;;;;;;;14.10;99.90;;;;;;5173990;27;20289;-39
2023/05/06 07:06:47;;;;;;;;;;;14.10;99.90;;;;;;5175097;27;19911;-39
2023/05/06 07:09:12;;;;;;;;;;;14.10;99.90;;;;;;5175208;27;19965;-39
2023/05/06 07:11:38;;;;;;;;;;;14.10;99.90;;;;;;5174266;27;19915;-39
2023/05/06 07:14:03;;;;;;;;;;;14.10;99.90;;;;;;5175435;27;20021;-39
2023/05/06 07:16:29;;;;;;;;;;;14.20;99.90;;;;;;5175282;27;19907;-39
2023/05/06 07:18:54;;;;;;;;;;;14.20;99.90;;;;;;5171884;27;19933;-39
2023/05/06 07:21:20;;;;;;;;;;;14.20;99.90;;;;;;5165923;27;19907;-39
2023/05/06 07:23:45;;;;;;;;;;;14.20;99.90;;;;;;5154213;27;19972;-38
2023/05/06 07:26:10;;;;;;;;;;;14.20;99.90;;;;;;5153750;27;19914;-39
2023/05/06 07:28:36;;;;;;;;;;;14.20;99.90;;;;;;5154335;27;19914;-38
2023/05/06 07:31:01;;;;;;;;;;;14.10;99.90;;;;;;5154271;27;20326;-40
2023/05/06 07:33:27;;;;;;;;;;;14.10;99.90;;;;;;5153207;27;19954;-39
2023/05/06 07:35:53;;;;;;;;;;;14.10;99.90;;;;;;5163007;27;19911;-39
2023/05/06 07:38:21;;;;;;;;;;;14.00;99.90;;;;;;5174870;27;19915;-39
2023/05/06 07:40:47;;;;;;;;;;;14.00;99.90;;;;;;5174137;27;20338;-39
2023/05/06 07:43:13;;;;;;;;;;;14.00;99.90;;;;;;5175111;27;20376;-38
2023/05/06 07:45:38;;;;;;;;;;;14.10;99.90;;;;;;5174973;27;20002;-38
2023/05/06 07:48:04;;;;;;;;;;;14.10;99.90;;;;;;5174216;27;19907;-38
2023/05/06 07:50:30;;;;;;;;;;;14.10;99.90;;;;;;5173846;27;20391;-38
2023/05/06 07:52:56;;;;;;;;;;;14.20;99.90;;;;;;5174861;27;20001;-38
2023/05/06 07:55:21;;;;;;;;;;;14.20;99.90;;;;;;5174178;27;19907;-38
2023/05/06 07:57:48;;;;;;;;;;;14.30;99.90;;;;;;5174538;27;19907;-39
2023/05/06 08:00:13;;;;;;;;;;;14.40;99.90;;;;;;5168315;27;19944;-38
2023/05/06 08:02:42;;;;;;;;;;;14.40;99.90;;;;;;5161913;27;20111;-38
2023/05/06 08:05:12;;;;;;;;;;;14.40;99.90;;;;;;5152244;27;19922;-39
2023/05/06 08:07:41;;;;;;;;;;;14.50;99.90;;;;;;5160425;27;19918;-38
2023/05/06 08:10:07;;;;;;;;;;;14.30;99.90;;;;;;5155971;27;20371;-40
2023/05/06 08:12:33;;;;;;;;;;;14.30;99.90;;;;;;5164990;27;19907;-37
2023/05/06 08:14:59;;;;;;;;;;;14.20;99.90;;;;;;5176283;27;19962;-38
2023/05/06 08:17:25;;;;;;;;;;;14.10;99.90;;;;;;5178350;27;19911;-39
2023/05/06 08:19:50;;;;;;;;;;;14.20;99.90;;;;;;5178399;27;20389;-38
2023/05/06 08:22:16;;;;;;;;;;;14.20;99.90;;;;;;5160289;27;19907;-39
2023/05/06 08:24:41;;;;;;;;;;;14.40;99.90;;;;;;5169230;27;19911;-38
2023/05/06 08:27:07;;;;;;;;;;;14.50;99.90;;;;;;5164491;27;20005;-38
2023/05/06 08:29:32;;;;;;;;;;;14.60;99.90;;;;;;5165358;27;19911;-38
2023/05/06 08:31:58;;;;;;;;;;;14.80;99.90;;;;;;5155368;27;20010;-38
2023/05/06 08:34:23;;;;;;;;;;;14.90;99.90;;;;;;5157469;27;19922;-38
2023/05/06 08:36:49;;;;;;;;;;;14.90;99.90;;;;;;5156623;27;19908;-37
2023/05/06 08:39:14;;;;;;;;;;;15.10;99.90;;;;;;5158784;27;19907;-38
2023/05/06 08:41:40;;;;;;;;;;;15.10;99.90;;;;;;5162210;27;19907;-37
2023/05/06 08:44:06;;;;;;;;;;;15.30;99.90;;;;;;5156653;27;19911;-39
2023/05/06 08:46:32;;;;;;;;;;;15.40;99.90;;;;;;5169744;27;19906;-38
2023/05/06 08:48:58;;;;;;;;;;;15.40;99.90;;;;;;5161974;27;20034;-39
2023/05/06 08:51:26;;;;;;;;;;;15.50;99.90;;;;;;5156464;27;19915;-38
2023/05/06 08:53:53;;;;;;;;;;;15.50;99.90;;;;;;5156404;27;19934;-38
2023/05/06 08:56:20;;;;;;;;;;;15.60;99.90;;;;;;5176735;27;19911;-38
2023/05/06 08:58:46;;;;;;;;;;;15.70;99.90;;;;;;5172464;27;19960;-38
2023/05/06 09:01:12;;;;;;;;;;;15.70;99.90;;;;;;5157043;27;19911;-38
2023/05/06 09:03:38;;;;;;;;;;;15.70;99.90;;;;;;5155948;27;19947;-38
2023/05/06 09:06:03;;;;;;;;;;;15.70;99.90;;;;;;5164085;27;19954;-38
2023/05/06 09:08:29;;;;;;;;;;;15.60;99.90;;;;;;5177739;27;19911;-37
2023/05/06 09:10:54;;;;;;;;;;;15.70;99.90;;;;;;5176744;27;19918;-37
2023/05/06 09:13:20;;;;;;;;;;;15.70;99.90;;;;;;5177785;27;19907;-38
2023/05/06 09:15:46;;;;;;;;;;;15.70;99.90;;;;;;5177031;27;19907;-37
2023/05/06 09:18:12;;;;;;;;;;;15.70;99.90;;;;;;5176257;27;20380;-38
2023/05/06 09:20:41;;;;;;;;;;;15.80;99.90;;;;;;5177402;27;19907;-37
2023/05/06 09:23:08;;;;;;;;;;;15.90;99.90;;;;;;5177432;27;19907;-38
2023/05/06 09:25:34;;;;;;;;;;;16.00;99.90;;;;;;5176895;27;20420;-39
2023/05/06 09:28:07;;;;;;;;;;;16.00;99.90;;;;;;5177060;27;19906;-38
2023/05/06 09:30:33;;;;;;;;;;;16.10;99.90;;;;;;5177176;27;19915;-39
2023/05/06 09:33:02;;;;;;;;;;;16.30;99.90;;;;;;5176078;27;20002;-38
2023/05/06 09:35:28;;;;;;;;;;;16.40;99.90;;;;;;5176976;27;20002;-38
2023/05/06 09:37:53;;;;;;;;;;;16.50;99.90;;;;;;5176884;27;20002;-38
2023/05/06 09:40:22;;;;;;;;;;;16.70;99.90;;;;;;5176163;27;19927;-38
2023/05/06 09:42:50;;;;;;;;;;;16.70;99.90;;;;;;5177000;27;19906;-37
2023/05/06 09:45:16;;;;;;;;;;;16.70;99.90;;;;;;5176877;27;19906;-37
2023/05/06 09:47:43;;;;;;;;;;;16.80;99.90;;;;;;5175540;27;19915;-37
2023/05/06 09:50:09;;;;;;;;;;;16.90;99.90;;;;;;5174796;27;19942;-38
2023/05/06 09:52:35;;;;;;;;;;;17.00;99.90;;;;;;5162678;27;20321;-37
2023/05/06 09:55:02;;;;;;;;;;;17.10;99.90;;;;;;5155806;27;20281;-38
2023/05/06 09:57:29;;;;;;;;;;;17.20;99.90;;;;;;5156036;27;19979;-38
2023/05/06 09:59:56;;;;;;;;;;;17.40;99.90;;;;;;5158178;27;19922;-37
2023/05/06 10:02:22;;;;;;;;;;;17.60;99.90;;;;;;5165458;27;20361;-38
2023/05/06 10:04:48;;;;;;;;;;;17.60;99.90;;;;;;5176641;27;19914;-38
2023/05/06 10:07:14;;;;;;;;;;;17.60;99.90;;;;;;5156416;27;19907;-38
2023/05/06 10:09:40;;;;;;;;;;;17.50;99.90;;;;;;5155691;27;19953;-39
2023/05/06 10:12:09;;;;;;;;;;;17.50;99.90;;;;;;5159416;27;19958;-37
2023/05/06 10:14:37;;;;;;;;;;;17.40;99.90;;;;;;5175570;27;19911;-38
2023/05/06 10:17:07;;;;;;;;;;;17.40;99.90;;;;;;5176434;27;19914;-38
2023/05/06 10:19:33;;;;;;;;;;;17.40;99.90;;;;;;5176011;27;19997;-37
2023/05/06 10:22:07;;;;;;;;;;;17.40;99.90;;;;;;5175610;27;20349;-38
2023/05/06 10:24:36;;;;;;;;;;;17.40;99.90;;;;;;5176342;27;19910;-38
2023/05/06 10:27:04;;;;;;;;;;;17.30;99.90;;;;;;5175944;27;19911;-37
2023/05/06 10:29:30;;;;;;;;;;;17.20;99.90;;;;;;5175395;27;19907;-38
2023/05/06 10:31:56;;;;;;;;;;;17.00;99.90;;;;;;5174974;27;19967;-38
2023/05/06 10:34:22;;;;;;;;;;;17.00;99.90;;;;;;5176068;27;19907;-37
2023/05/06 10:36:50;;;;;;;;;;;17.00;99.90;;;;;;5156473;27;20348;-38
2023/05/06 10:39:16;;;;;;;;;;;17.00;99.90;;;;;;5175952;27;19907;-37
2023/05/06 10:41:41;;;;;;;;;;;17.20;99.90;;;;;;5175917;27;19914;-38
2023/05/06 10:44:08;;;;;;;;;;;17.40;99.90;;;;;;5175068;27;19914;-37
2023/05/06 10:46:54;;;;;;;;;;;17.70;99.90;;;;;;5173551;27;19925;-37
2023/05/06 10:49:19;;;;;;;;;;;17.80;99.90;;;;;;5170700;27;20370;-38
2023/05/06 10:51:45;;;;;;;;;;;18.00;99.90;;;;;;5175077;27;19919;-38
2023/05/06 10:54:17;;;;;;;;;;;18.00;99.90;;;;;;5175701;27;19907;-37
2023/05/06 10:56:48;;;;;;;;;;;18.20;99.90;;;;;;5172515;27;20281;-37
2023/05/06 10:59:14;;;;;;;;;;;18.40;99.90;;;;;;5175824;27;20151;-38
2023/05/06 11:01:41;;;;;;;;;;;18.50;99.90;;;;;;5169258;27;19949;-37
2023/05/06 11:04:10;;;;;;;;;;;18.70;99.90;;;;;;5157770;27;20305;-38
2023/05/06 11:06:37;;;;;;;;;;;18.80;99.90;;;;;;5161936;27;19910;-38
2023/05/06 11:09:04;;;;;;;;;;;18.80;99.90;;;;;;5154649;27;20055;-38
2023/05/06 11:11:48;;;;;;;;;;;18.90;99.90;;;;;;5166176;27;19922;-37
2023/05/06 11:14:23;;;;;;;;;;;19.10;99.90;;;;;;5175389;27;20418;-38
2023/05/06 11:16:49;;;;;;;;;;;19.30;99.90;;;;;;5168688;27;19982;-37
2023/05/06 11:19:25;;;;;;;;;;;19.40;99.90;;;;;;5174671;27;19946;-38
2023/05/06 11:21:56;;;;;;;;;;;19.50;99.90;;;;;;5175106;27;20361;-37
2023/05/06 11:24:23;;;;;;;;;;;19.60;99.90;;;;;;5173087;27;20239;-37
2023/05/06 11:26:49;;;;;;;;;;;19.50;99.90;;;;;;5174797;27;20373;-38
2023/05/06 11:29:15;;;;;;;;;;;19.50;99.90;;;;;;5162078;27;19945;-38
2023/05/06 11:31:41;;;;;;;;;;;19.40;99.90;;;;;;5165669;27;20404;-37
2023/05/06 11:34:07;;;;;;;;;;;19.40;99.90;;;;;;5174467;27;19931;-38
2023/05/06 11:36:33;;;;;;;;;;;19.30;99.90;;;;;;5171960;27;20438;-37
2023/05/06 11:39:04;;;;;;;;;;;19.20;99.90;;;;;;5171409;27;20020;-37
2023/05/06 11:41:29;;;;;;;;;;;19.10;99.90;;;;;;5169886;27;19911;-36
2023/05/06 11:43:55;;;;;;;;;;;19.10;99.90;;;;;;5177669;27;19972;-38
2023/05/06 11:46:21;;;;;;;;;;;19.10;99.90;;;;;;5176306;27;20302;-39
2023/05/06 11:48:48;;;;;;;;;;;19.00;99.90;;;;;;5171068;27;19921;-37
2023/05/06 11:51:13;;;;;;;;;;;19.00;99.90;;;;;;5159445;27;20443;-38
2023/05/06 11:53:38;;;;;;;;;;;19.00;99.90;;;;;;5157541;27;19911;-38
2023/05/06 11:56:04;;;;;;;;;;;19.00;99.90;;;;;;5157736;27;19914;-37
2023/05/06 11:58:30;;;;;;;;;;;19.00;99.90;;;;;;5163320;27;19911;-37
2023/05/06 12:00:57;;;;;;;;;;;18.90;99.90;;;;;;5158643;27;20440;-38
2023/05/06 12:03:23;;;;;;;;;;;18.90;99.90;;;;;;5166579;27;20369;-38
2023/05/06 12:05:48;;;;;;;;;;;18.90;99.90;;;;;;5172188;27;19919;-37
2023/05/06 12:08:15;;;;;;;;;;;18.90;99.90;;;;;;5162564;27;20441;-38
2023/05/06 12:10:41;;;;;;;;;;;18.90;99.90;;;;;;5172182;27;19973;-38
2023/05/06 12:13:07;;;;;;;;;;;18.90;99.90;;;;;;5162893;27;20408;-37
2023/05/06 12:15:33;;;;;;;;;;;18.90;99.90;;;;;;5164361;27;19914;-38
2023/05/06 12:17:59;;;;;;;;;;;18.90;99.90;;;;;;5177487;27;19942;-38
2023/05/06 12:20:24;;;;;;;;;;;18.90;99.90;;;;;;5175649;27;19964;-38
2023/05/06 12:23:06;;;;;;;;;;;18.90;99.90;;;;;;5177351;27;20302;-38
2023/05/06 12:25:31;;;;;;;;;;;18.90;99.90;;;;;;5175589;27;19961;-38
2023/05/06 12:27:57;;;;;;;;;;;18.90;99.90;;;;;;5170160;27;19950;-37
2023/05/06 12:30:30;;;;;;;;;;;18.90;99.90;;;;;;5177630;27;19907;-38
2023/05/06 12:32:56;;;;;;;;;;;18.90;99.90;;;;;;5165704;27;19957;-37
2023/05/06 12:35:29;;;;;;;;;;;18.90;99.90;;;;;;5158367;27;19915;-38
2023/05/06 12:37:55;;;;;;;;;;;18.90;99.90;;;;;;5156693;27;20025;-37
2023/05/06 12:40:21;;;;;;;;;;;18.80;99.90;;;;;;5166184;27;20002;-37
2023/05/06 12:42:55;;;;;;;;;;;18.80;99.90;;;;;;5170000;27;19911;-37
2023/05/06 12:45:21;;;;;;;;;;;18.90;99.90;;;;;;5177857;27;19954;-38
2023/05/06 12:47:56;;;;;;;;;;;18.90;99.90;;;;;;5159238;27;19958;-38
2023/05/06 12:50:35;;;;;;;;;;;18.90;99.90;;;;;;5159477;27;20342;-38
2023/05/06 12:53:00;;;;;;;;;;;18.90;99.90;;;;;;5177209;27;20384;-38
2023/05/06 12:55:26;;;;;;;;;;;18.90;99.90;;;;;;5177148;27;19911;-38
2023/05/06 12:57:51;;;;;;;;;;;18.90;99.90;;;;;;5177041;27;19911;-38
2023/05/06 13:00:17;;;;;;;;;;;18.90;99.90;;;;;;5177316;27;20375;-38
2023/05/06 13:02:43;;;;;;;;;;;18.90;99.90;;;;;;5168758;27;19911;-38
2023/05/06 13:05:08;;;;;;;;;;;18.90;99.90;;;;;;5158051;27;20296;-39
2023/05/06 13:07:34;;;;;;;;;;;18.80;99.90;;;;;;5156191;27;20250;-37
2023/05/06 13:09:59;;;;;;;;;;;18.80;99.90;;;;;;5155774;27;19923;-38
2023/05/06 13:12:25;;;;;;;;;;;18.80;99.90;;;;;;5162546;27;19963;-38
2023/05/06 13:14:50;;;;;;;;;;;18.50;99.90;;;;;;5158108;27;20270;-38
2023/05/06 13:17:16;;;;;;;;;;;18.30;99.90;;;;;;5161082;27;20044;-39
2023/05/06 13:19:41;;;;;;;;;;;18.10;99.90;;;;;;5169017;27;19915;-39
2023/05/06 13:22:07;;;;;;;;;;;17.90;99.90;;;;;;5155418;27;19911;-39
2023/05/06 13:24:32;;;;;;;;;;;17.80;99.90;;;;;;5155347;27;19915;-39
2023/05/06 13:26:59;;;;;;;;;;;17.60;99.90;;;;;;5157802;27;19934;-38
2023/05/06 13:29:25;;;;;;;;;;;17.50;99.90;;;;;;5156028;27;19967;-38
2023/05/06 13:31:51;;;;;;;;;;;17.50;99.90;;;;;;5158474;27;20009;-38
2023/05/06 13:34:16;;;;;;;;;;;17.40;99.90;;;;;;5158095;27;19911;-38
2023/05/06 13:36:42;;;;;;;;;;;17.40;99.90;;;;;;5161353;27;19911;-38
2023/05/06 13:39:08;;;;;;;;;;;17.30;99.90;;;;;;5154664;27;20011;-37
2023/05/06 13:41:34;;;;;;;;;;;17.20;99.90;;;;;;5158428;27;20373;-38
2023/05/06 13:43:59;;;;;;;;;;;17.20;99.90;;;;;;5155849;27;20009;-38
2023/05/06 13:46:26;;;;;;;;;;;17.10;99.90;;;;;;5161646;27;19918;-39
2023/05/06 13:48:52;;;;;;;;;;;17.10;99.90;;;;;;5158966;27;20046;-39
2023/05/06 13:51:17;;;;;;;;;;;17.00;99.90;;;;;;5164341;27;19919;-38
2023/05/06 13:53:43;;;;;;;;;;;17.00;99.90;;;;;;5158873;27;19911;-39
2023/05/06 13:56:08;;;;;;;;;;;17.00;99.90;;;;;;5175595;27;20326;-38
2023/05/06 13:58:34;;;;;;;;;;;17.10;99.90;;;;;;5175760;27;20388;-38
2023/05/06 14:01:00;;;;;;;;;;;17.10;99.90;;;;;;5175077;27;20258;-39
2023/05/06 14:03:26;;;;;;;;;;;17.20;99.90;;;;;;5175446;27;19907;-39
2023/05/06 14:05:51;;;;;;;;;;;17.20;99.90;;;;;;5175023;27;20584;-38
2023/05/06 14:08:17;;;;;;;;;;;17.20;99.90;;;;;;5176097;27;19907;-38
2023/05/06 14:10:42;;;;;;;;;;;17.30;99.90;;;;;;5175427;27;19915;-39